createdAt,value
2023-11-15T00:00:16.878Z,99039.09
2023-11-15T00:00:48.267Z,99041.63
2023-11-15T00:01:19.623Z,99039.97
2023-11-15T00:01:50.970Z,99045.13
2023-11-15T00:02:22.344Z,99042.63
2023-11-15T00:02:53.770Z,99054.09
2023-11-15T00:03:25.205Z,99054.91
2023-11-15T00:03:56.606Z,99046.09
2023-11-15T00:04:28.266Z,99050.59
2023-11-15T00:04:59.611Z,99053.25
2023-11-15T00:05:31.032Z,99053.25
2023-11-15T00:06:02.816Z,99055.75
2023-11-15T00:06:34.395Z,99056.59
2023-11-15T00:07:05.864Z,99061.91
2023-11-15T00:07:37.253Z,99063.75
2023-11-15T00:08:08.571Z,99056.75
2023-11-15T00:08:39.965Z,99067.38
2023-11-15T00:09:11.366Z,99068.34
2023-11-15T00:09:42.718Z,99062.88
2023-11-15T00:10:14.047Z,99069.22
2023-11-15T00:10:45.424Z,99073.69
2023-11-15T00:11:16.942Z,99063.91
2023-11-15T00:11:50.254Z,99066.56
2023-11-15T00:12:21.586Z,99075.50
2023-11-15T00:12:52.909Z,99074.69
2023-11-15T00:13:24.218Z,99079.00
2023-11-15T00:13:55.596Z,99072.03
2023-11-15T00:14:26.936Z,99071.16
2023-11-15T00:14:58.278Z,99075.50
2023-11-15T00:15:31.927Z,99077.19
2023-11-15T00:16:03.656Z,99074.84
2023-11-15T00:16:35.013Z,99079.00
2023-11-15T00:17:06.334Z,99080.81
2023-11-15T00:17:37.732Z,99079.00
2023-11-15T00:18:09.244Z,99075.50
2023-11-15T00:18:40.627Z,99084.31
2023-11-15T00:19:11.947Z,99085.47
2023-11-15T00:19:43.254Z,99087.81
2023-11-15T00:20:14.693Z,99078.16
2023-11-15T00:20:46.163Z,99077.19
2023-11-15T00:21:17.530Z,99088.50
2023-11-15T00:21:48.835Z,99084.16
2023-11-15T00:22:20.214Z,99086.66
2023-11-15T00:22:51.552Z,99079.56
2023-11-15T00:23:22.916Z,99084.16
2023-11-15T00:23:54.243Z,99079.69
2023-11-15T00:24:25.548Z,99090.19
2023-11-15T00:24:56.934Z,99088.66
2023-11-15T00:25:28.614Z,99093.81
2023-11-15T00:25:59.961Z,99091.16
2023-11-15T00:26:31.271Z,99098.31
2023-11-15T00:27:02.692Z,99093.00
2023-11-15T00:27:34.178Z,99099.13
2023-11-15T00:28:05.504Z,99093.81
2023-11-15T00:28:36.908Z,99096.78
2023-11-15T00:29:08.474Z,99097.59
2023-11-15T00:29:39.861Z,99094.13
2023-11-15T00:30:11.679Z,99097.59
2023-11-15T00:30:43.198Z,99097.75
2023-11-15T00:31:14.747Z,99102.94
2023-11-15T00:31:46.181Z,99101.13
2023-11-15T00:32:17.645Z,99101.13
2023-11-15T00:32:49.402Z,99107.56
2023-11-15T00:33:21.005Z,99105.75
2023-11-15T00:33:52.610Z,99105.75
2023-11-15T00:34:24.114Z,99103.06
2023-11-15T00:34:55.622Z,99107.56
2023-11-15T00:35:27.089Z,99108.09
2023-11-15T00:35:58.700Z,99110.75
2023-11-15T00:36:30.253Z,99108.09
2023-11-15T00:37:01.931Z,99110.59
2023-11-15T00:37:33.380Z,99106.44
2023-11-15T00:38:04.954Z,99113.41
2023-11-15T00:38:36.480Z,99108.09
2023-11-15T00:39:08.007Z,99105.59
2023-11-15T00:39:39.487Z,99111.91
2023-11-15T00:40:11.322Z,99119.88
2023-11-15T00:40:42.809Z,99114.41
2023-11-15T00:41:14.346Z,99120.56
2023-11-15T00:41:45.836Z,99117.75
2023-11-15T00:42:17.321Z,99115.09
2023-11-15T00:42:48.722Z,99119.44
2023-11-15T00:43:20.251Z,99129.91
2023-11-15T00:43:51.734Z,99125.72
2023-11-15T00:44:23.258Z,99130.06
2023-11-15T00:44:54.832Z,99130.22
2023-11-15T00:45:26.359Z,99128.25
2023-11-15T00:45:57.906Z,99130.75
2023-11-15T00:46:29.460Z,99126.56
2023-11-15T00:47:00.938Z,99141.53
2023-11-15T00:47:32.565Z,99137.19
2023-11-15T00:48:04.332Z,99139.03
2023-11-15T00:48:35.858Z,99131.88
2023-11-15T00:49:07.361Z,99134.38
2023-11-15T00:49:38.887Z,99137.88
2023-11-15T00:50:10.354Z,99132.56
2023-11-15T00:50:41.826Z,99137.06
2023-11-15T00:51:13.327Z,99136.06
2023-11-15T00:51:44.816Z,99136.38
2023-11-15T00:52:16.232Z,99134.69
2023-11-15T00:52:47.738Z,99139.84
2023-11-15T00:53:19.308Z,99135.53
2023-11-15T00:53:50.803Z,99139.72
2023-11-15T00:54:22.285Z,99138.06
2023-11-15T00:54:53.777Z,99138.88
2023-11-15T00:55:25.195Z,99143.38
2023-11-15T00:55:56.802Z,99137.06
2023-11-15T00:56:28.265Z,99144.19
2023-11-15T00:56:59.745Z,99153.00
2023-11-15T00:57:31.187Z,99144.06
2023-11-15T00:58:02.720Z,99146.72
2023-11-15T00:58:34.287Z,99148.50
2023-11-15T00:59:05.742Z,99152.03
2023-11-15T00:59:37.257Z,99153.00
2023-11-15T01:00:08.937Z,99160.16
2023-11-15T01:00:40.489Z,99141.53
2023-11-15T01:01:12.143Z,99156.81
2023-11-15T01:01:43.675Z,99154.00
2023-11-15T01:02:15.212Z,99162.00
2023-11-15T01:02:46.793Z,99161.28
2023-11-15T01:03:18.376Z,99155.00
2023-11-15T01:03:49.985Z,99168.28
2023-11-15T01:04:21.537Z,99159.34
2023-11-15T01:04:53.076Z,99161.28
2023-11-15T01:05:24.917Z,99161.28
2023-11-15T01:05:56.820Z,99166.59
2023-11-15T01:06:28.384Z,99167.47
2023-11-15T01:06:59.983Z,99157.66
2023-11-15T01:07:31.477Z,99162.97
2023-11-15T01:08:02.973Z,99162.00
2023-11-15T01:08:34.488Z,99166.44
2023-11-15T01:09:06.165Z,99164.66
2023-11-15T01:09:37.771Z,99166.31
2023-11-15T01:10:09.420Z,99166.31
2023-11-15T01:10:42.858Z,99155.66
2023-11-15T01:11:14.265Z,99156.66
2023-11-15T01:11:45.743Z,99176.25
2023-11-15T01:12:17.200Z,99168.28
2023-11-15T01:12:48.737Z,99170.78
2023-11-15T01:13:20.376Z,99170.25
2023-11-15T01:13:51.912Z,99174.59
2023-11-15T01:14:23.402Z,99167.59
2023-11-15T01:14:55.028Z,99173.59
2023-11-15T01:15:26.643Z,99174.44
2023-11-15T01:15:58.156Z,99170.13
2023-11-15T01:16:29.720Z,99177.38
2023-11-15T01:17:01.284Z,99177.25
2023-11-15T01:17:32.792Z,99174.59
2023-11-15T01:18:04.443Z,99180.03
2023-11-15T01:18:35.956Z,99177.25
2023-11-15T01:19:07.422Z,99178.91
2023-11-15T01:19:38.931Z,99179.91
2023-11-15T01:20:10.511Z,99181.59
2023-11-15T01:20:42.813Z,99191.41
2023-11-15T01:21:14.283Z,99190.53
2023-11-15T01:21:45.754Z,99187.06
2023-11-15T01:22:17.249Z,99194.88
2023-11-15T01:22:48.676Z,99192.22
2023-11-15T01:23:20.181Z,99196.72
2023-11-15T01:23:51.701Z,99189.72
2023-11-15T01:24:23.272Z,99194.06
2023-11-15T01:24:54.755Z,99194.06
2023-11-15T01:25:26.251Z,99198.22
2023-11-15T01:25:57.776Z,99191.25
2023-11-15T01:26:29.311Z,99192.91
2023-11-15T01:27:00.775Z,99191.25
2023-11-15T01:27:32.203Z,99202.03
2023-11-15T01:28:03.636Z,99198.50
2023-11-15T01:28:35.089Z,99204.84
2023-11-15T01:29:06.557Z,99193.19
2023-11-15T01:29:38.115Z,99194.19
2023-11-15T01:30:09.788Z,99198.50
2023-11-15T01:30:41.318Z,99200.19
2023-11-15T01:31:12.737Z,99194.19
2023-11-15T01:31:44.244Z,99197.53
2023-11-15T01:32:15.728Z,99203.53
2023-11-15T01:32:47.368Z,99211.50
2023-11-15T01:33:19.007Z,99206.50
2023-11-15T01:33:50.513Z,99209.16
2023-11-15T01:34:22.011Z,99205.53
2023-11-15T01:34:53.471Z,99212.53
2023-11-15T01:35:25.138Z,99207.19
2023-11-15T01:35:56.706Z,99206.50
2023-11-15T01:36:28.509Z,99209.16
2023-11-15T01:37:00.031Z,99209.16
2023-11-15T01:37:31.600Z,99213.50
2023-11-15T01:38:03.082Z,99213.66
2023-11-15T01:38:34.559Z,99211.97
2023-11-15T01:39:06.163Z,99210.84
2023-11-15T01:39:37.621Z,99212.53
2023-11-15T01:40:09.262Z,99217.84
2023-11-15T01:40:40.725Z,99229.31
2023-11-15T01:41:12.402Z,99229.44
2023-11-15T01:41:46.913Z,99229.59
2023-11-15T01:42:18.475Z,99224.44
2023-11-15T01:42:50.041Z,99217.13
2023-11-15T01:43:21.520Z,99222.31
2023-11-15T01:43:53.000Z,99218.97
2023-11-15T01:44:24.512Z,99219.78
2023-11-15T01:44:56.010Z,99220.50
2023-11-15T01:45:27.562Z,99219.78
2023-11-15T01:45:59.140Z,99215.31
2023-11-15T01:46:30.737Z,99213.50
2023-11-15T01:47:02.332Z,99216.97
2023-11-15T01:47:34.186Z,99214.31
2023-11-15T01:48:05.927Z,99212.53
2023-11-15T01:48:37.499Z,99216.31
2023-11-15T01:49:09.041Z,99214.47
2023-11-15T01:49:40.531Z,99211.66
2023-11-15T01:50:12.064Z,99215.31
2023-11-15T01:50:43.865Z,99216.97
2023-11-15T01:51:15.396Z,99218.66
2023-11-15T01:51:46.825Z,99208.31
2023-11-15T01:52:18.315Z,99219.50
2023-11-15T01:52:49.726Z,99218.66
2023-11-15T01:53:21.905Z,99216.97
2023-11-15T01:53:53.372Z,99215.31
2023-11-15T01:54:24.893Z,99209.44
2023-11-15T01:54:56.336Z,99211.13
2023-11-15T01:55:27.849Z,99218.28
2023-11-15T01:55:59.310Z,99216.44
2023-11-15T01:56:30.784Z,99217.28
2023-11-15T01:57:02.200Z,99220.09
2023-11-15T01:57:33.602Z,99220.09
2023-11-15T01:58:05.648Z,99218.97
2023-11-15T01:58:37.122Z,99218.13
2023-11-15T01:59:08.719Z,99231.44
2023-11-15T01:59:40.212Z,99220.09
2023-11-15T02:00:11.971Z,99226.25
2023-11-15T02:00:43.489Z,99233.22
2023-11-15T02:01:14.966Z,99233.38
2023-11-15T02:01:46.497Z,99228.78
2023-11-15T02:02:18.056Z,99234.09
2023-11-15T02:02:49.629Z,99242.06
2023-11-15T02:03:21.533Z,99234.09
2023-11-15T02:03:53.175Z,99239.41
2023-11-15T02:04:24.692Z,99237.56
2023-11-15T02:04:56.191Z,99246.38
2023-11-15T02:05:27.645Z,99238.56
2023-11-15T02:05:59.170Z,99239.41
2023-11-15T02:06:30.919Z,99231.28
2023-11-15T02:07:02.445Z,99249.03
2023-11-15T02:07:33.976Z,99245.69
2023-11-15T02:08:05.511Z,99241.94
2023-11-15T02:08:37.014Z,99241.94
2023-11-15T02:09:08.507Z,99245.25
2023-11-15T02:09:39.956Z,99240.78
2023-11-15T02:10:11.399Z,99244.44
2023-11-15T02:10:42.872Z,99247.09
2023-11-15T02:11:14.355Z,99244.25
2023-11-15T02:11:45.861Z,99250.44
2023-11-15T02:12:17.321Z,99250.44
2023-11-15T02:12:48.846Z,99249.56
2023-11-15T02:13:21.081Z,99247.78
2023-11-15T02:13:52.550Z,99251.56
2023-11-15T02:14:24.051Z,99253.25
2023-11-15T02:14:55.610Z,99262.03
2023-11-15T02:15:27.079Z,99267.38
2023-11-15T02:15:58.878Z,99262.88
2023-11-15T02:16:30.428Z,99264.56
2023-11-15T02:17:01.879Z,99271.03
2023-11-15T02:17:33.369Z,99255.75
2023-11-15T02:18:05.241Z,99254.06
2023-11-15T02:18:36.962Z,99253.25
2023-11-15T02:19:08.434Z,99253.91
2023-11-15T02:19:39.905Z,99252.94
2023-11-15T02:20:11.650Z,99259.25
2023-11-15T02:20:43.040Z,99259.09
2023-11-15T02:21:14.565Z,99264.56
2023-11-15T02:21:46.000Z,99265.38
2023-11-15T02:22:17.586Z,99274.38
2023-11-15T02:22:49.945Z,99266.53
2023-11-15T02:23:21.728Z,99270.84
2023-11-15T02:23:53.245Z,99283.31
2023-11-15T02:24:24.693Z,99279.69
2023-11-15T02:24:56.125Z,99279.69
2023-11-15T02:25:27.548Z,99279.69
2023-11-15T02:25:58.972Z,99277.19
2023-11-15T02:26:30.383Z,99270.03
2023-11-15T02:27:01.934Z,99275.19
2023-11-15T02:27:33.390Z,99279.69
2023-11-15T02:28:04.881Z,99278.69
2023-11-15T02:28:36.313Z,99278.00
2023-11-15T02:29:07.782Z,99272.00
2023-11-15T02:29:39.316Z,99278.00
2023-11-15T02:30:11.151Z,99279.84
2023-11-15T02:30:42.625Z,99278.16
2023-11-15T02:31:14.121Z,99269.34
2023-11-15T02:31:45.628Z,99271.03
2023-11-15T02:32:17.173Z,99271.03
2023-11-15T02:32:48.817Z,99272.84
2023-11-15T02:33:20.525Z,99272.69
2023-11-15T02:33:52.026Z,99284.16
2023-11-15T02:34:23.479Z,99277.03
2023-11-15T02:34:54.949Z,99274.38
2023-11-15T02:35:26.460Z,99281.34
2023-11-15T02:35:58.023Z,99282.19
2023-11-15T02:36:29.535Z,99277.03
2023-11-15T02:37:01.085Z,99281.66
2023-11-15T02:37:32.639Z,99279.00
2023-11-15T02:38:04.059Z,99279.97
2023-11-15T02:38:35.602Z,99272.69
2023-11-15T02:39:07.104Z,99278.84
2023-11-15T02:39:38.592Z,99270.72
2023-11-15T02:40:10.611Z,99277.19
2023-11-15T02:40:45.244Z,99271.84
2023-11-15T02:41:17.032Z,99272.53
2023-11-15T02:41:48.473Z,99262.03
2023-11-15T02:42:19.905Z,99269.34
2023-11-15T02:42:51.298Z,99261.06
2023-11-15T02:43:22.710Z,99260.22
2023-11-15T02:43:54.078Z,99269.06
2023-11-15T02:44:25.545Z,99266.38
2023-11-15T02:44:57.091Z,99272.38
2023-11-15T02:45:28.558Z,99270.72
2023-11-15T02:46:00.083Z,99278.00
2023-11-15T02:46:31.677Z,99269.88
2023-11-15T02:47:03.174Z,99270.84
2023-11-15T02:47:34.744Z,99268.03
2023-11-15T02:48:06.294Z,99276.88
2023-11-15T02:48:37.910Z,99278.00
2023-11-15T02:49:09.459Z,99276.03
2023-11-15T02:49:41.128Z,99281.34
2023-11-15T02:50:12.676Z,99277.03
2023-11-15T02:50:44.203Z,99276.88
2023-11-15T02:51:15.663Z,99278.69
2023-11-15T02:51:47.098Z,99278.69
2023-11-15T02:52:18.590Z,99283.03
2023-11-15T02:52:49.996Z,99283.03
2023-11-15T02:53:21.497Z,99281.19
2023-11-15T02:53:52.987Z,99272.38
2023-11-15T02:54:24.437Z,99272.69
2023-11-15T02:54:56.077Z,99280.81
2023-11-15T02:55:27.572Z,99274.66
2023-11-15T02:55:59.029Z,99274.66
2023-11-15T02:56:30.860Z,99282.66
2023-11-15T02:57:02.293Z,99296.75
2023-11-15T02:57:33.729Z,99297.63
2023-11-15T02:58:05.197Z,99303.91
2023-11-15T02:58:36.771Z,99303.78
2023-11-15T02:59:08.267Z,99292.31
2023-11-15T02:59:39.785Z,99291.31
2023-11-15T03:00:11.513Z,99271.84
2023-11-15T03:00:42.969Z,99279.31
2023-11-15T03:01:14.442Z,99272.97
2023-11-15T03:01:46.555Z,99274.81
2023-11-15T03:02:17.991Z,99275.63
2023-11-15T03:02:49.528Z,99279.16
2023-11-15T03:03:21.111Z,99279.97
2023-11-15T03:03:52.808Z,99281.66
2023-11-15T03:04:24.405Z,99279.84
2023-11-15T03:04:55.904Z,99287.81
2023-11-15T03:05:28.689Z,99287.66
2023-11-15T03:06:00.397Z,99285.31
2023-11-15T03:06:31.914Z,99285.00
2023-11-15T03:07:03.409Z,99284.16
2023-11-15T03:07:34.982Z,99285.84
2023-11-15T03:08:06.408Z,99280.53
2023-11-15T03:08:37.985Z,99292.84
2023-11-15T03:09:09.564Z,99284.16
2023-11-15T03:09:41.425Z,99292.84
2023-11-15T03:10:12.954Z,99288.34
2023-11-15T03:10:44.544Z,99289.19
2023-11-15T03:11:16.034Z,99290.31
2023-11-15T03:11:47.534Z,99285.69
2023-11-15T03:12:19.074Z,99289.31
2023-11-15T03:12:50.518Z,99291.16
2023-11-15T03:13:22.021Z,99285.00
2023-11-15T03:13:53.473Z,99286.66
2023-11-15T03:14:24.965Z,99287.66
2023-11-15T03:14:56.521Z,99289.47
2023-11-15T03:15:28.484Z,99284.00
2023-11-15T03:15:59.969Z,99288.50
2023-11-15T03:16:31.485Z,99287.66
2023-11-15T03:17:06.170Z,99285.84
2023-11-15T03:17:37.691Z,99293.00
2023-11-15T03:18:09.282Z,99288.63
2023-11-15T03:18:40.863Z,99289.47
2023-11-15T03:19:15.188Z,99294.78
2023-11-15T03:19:46.678Z,99295.66
2023-11-15T03:20:18.147Z,99291.97
2023-11-15T03:20:50.019Z,99290.31
2023-11-15T03:21:21.525Z,99291.00
2023-11-15T03:21:52.919Z,99291.97
2023-11-15T03:22:24.349Z,99285.00
2023-11-15T03:22:55.850Z,99293.66
2023-11-15T03:23:27.502Z,99293.00
2023-11-15T03:23:59.040Z,99291.16
2023-11-15T03:24:30.559Z,99291.97
2023-11-15T03:25:02.312Z,99293.66
2023-11-15T03:25:33.777Z,99286.66
2023-11-15T03:26:05.319Z,99290.03
2023-11-15T03:26:36.954Z,99296.34
2023-11-15T03:27:08.378Z,99293.53
2023-11-15T03:27:39.831Z,99295.34
2023-11-15T03:28:11.305Z,99297.00
2023-11-15T03:28:42.690Z,99297.16
2023-11-15T03:29:14.171Z,99302.47
2023-11-15T03:29:45.668Z,99304.31
2023-11-15T03:30:17.448Z,99308.81
2023-11-15T03:30:48.867Z,99312.97
2023-11-15T03:31:20.346Z,99313.25
2023-11-15T03:31:51.817Z,99307.94
2023-11-15T03:32:23.404Z,99308.94
2023-11-15T03:32:55.109Z,99313.25
2023-11-15T03:33:26.874Z,99309.63
2023-11-15T03:33:58.651Z,99313.97
2023-11-15T03:34:30.214Z,99318.44
2023-11-15T03:35:01.703Z,99321.25
2023-11-15T03:35:33.166Z,99322.94
2023-11-15T03:36:04.915Z,99321.94
2023-11-15T03:36:36.384Z,99324.63
2023-11-15T03:37:07.862Z,99329.94
2023-11-15T03:37:39.384Z,99330.06
2023-11-15T03:38:10.838Z,99330.75
2023-11-15T03:38:42.374Z,99336.91
2023-11-15T03:39:13.917Z,99334.25
2023-11-15T03:39:45.528Z,99337.06
2023-11-15T03:40:16.995Z,99337.06
2023-11-15T03:40:48.528Z,99334.38
2023-11-15T03:41:19.968Z,99337.91
2023-11-15T03:41:51.480Z,99336.22
2023-11-15T03:42:22.943Z,99335.25
2023-11-15T03:42:54.413Z,99342.38
2023-11-15T03:43:25.903Z,99344.06
2023-11-15T03:43:57.325Z,99335.25
2023-11-15T03:44:28.757Z,99343.38
2023-11-15T03:45:00.277Z,99345.88
2023-11-15T03:45:31.719Z,99335.94
2023-11-15T03:46:03.269Z,99338.59
2023-11-15T03:46:34.979Z,99343.09
2023-11-15T03:47:06.576Z,99346.56
2023-11-15T03:47:38.215Z,99350.22
2023-11-15T03:48:09.768Z,99351.06
2023-11-15T03:48:41.385Z,99374.00
2023-11-15T03:49:13.068Z,99381.28
2023-11-15T03:49:44.574Z,99384.63
2023-11-15T03:50:16.133Z,99381.16
2023-11-15T03:50:47.641Z,99378.50
2023-11-15T03:51:19.166Z,99373.31
2023-11-15T03:51:50.653Z,99370.81
2023-11-15T03:52:22.089Z,99354.00
2023-11-15T03:52:53.507Z,99346.03
2023-11-15T03:53:25.098Z,99339.84
2023-11-15T03:53:56.668Z,99336.38
2023-11-15T03:54:28.249Z,99342.50
2023-11-15T03:54:59.727Z,99344.22
2023-11-15T03:55:31.150Z,99351.34
2023-11-15T03:56:02.834Z,99341.69
2023-11-15T03:56:34.630Z,99339.31
2023-11-15T03:57:06.395Z,99348.84
2023-11-15T03:57:37.854Z,99344.50
2023-11-15T03:58:09.262Z,99346.19
2023-11-15T03:58:40.683Z,99352.47
2023-11-15T03:59:12.577Z,99350.63
2023-11-15T03:59:44.111Z,99348.84
2023-11-15T04:00:15.712Z,99347.84
2023-11-15T04:00:47.246Z,99357.50
2023-11-15T04:01:18.725Z,99354.16
2023-11-15T04:01:55.163Z,99355.81
2023-11-15T04:02:29.173Z,99355.81
2023-11-15T04:03:00.808Z,99359.47
2023-11-15T04:03:32.581Z,99359.47
2023-11-15T04:04:04.454Z,99356.81
2023-11-15T04:04:38.353Z,99355.97
2023-11-15T04:05:10.123Z,99370.94
2023-11-15T04:05:41.783Z,99370.94
2023-11-15T04:06:13.342Z,99373.75
2023-11-15T04:06:44.812Z,99370.41
2023-11-15T04:07:16.303Z,99377.41
2023-11-15T04:07:47.749Z,99382.16
2023-11-15T04:08:19.373Z,99391.97
2023-11-15T04:08:51.019Z,99386.50
2023-11-15T04:09:22.638Z,99382.00
2023-11-15T04:09:54.239Z,99384.69
2023-11-15T04:10:25.744Z,99383.84
2023-11-15T04:10:57.370Z,99396.03
2023-11-15T04:11:29.721Z,99389.72
2023-11-15T04:12:01.631Z,99395.03
2023-11-15T04:12:33.462Z,99398.69
2023-11-15T04:13:04.938Z,99399.53
2023-11-15T04:13:36.598Z,99399.53
2023-11-15T04:14:08.104Z,99397.97
2023-11-15T04:14:39.630Z,99384.81
2023-11-15T04:15:11.143Z,99384.81
2023-11-15T04:15:42.849Z,99385.69
2023-11-15T04:16:14.503Z,99395.16
2023-11-15T04:16:46.093Z,99388.88
2023-11-15T04:17:17.577Z,99398.69
2023-11-15T04:17:49.654Z,99399.66
2023-11-15T04:18:21.596Z,99411.28
2023-11-15T04:18:53.092Z,99402.31
2023-11-15T04:19:24.629Z,99413.78
2023-11-15T04:19:56.157Z,99412.97
2023-11-15T04:20:27.653Z,99418.28
2023-11-15T04:20:59.242Z,99405.13
2023-11-15T04:21:30.670Z,99410.59
2023-11-15T04:22:11.734Z,99406.81
2023-11-15T04:22:45.565Z,99397.00
2023-11-15T04:23:17.101Z,99385.53
2023-11-15T04:23:48.652Z,99398.69
2023-11-15T04:24:20.290Z,99401.34
2023-11-15T04:24:51.724Z,99397.81
2023-11-15T04:25:23.262Z,99389.72
2023-11-15T04:25:54.752Z,99386.38
2023-11-15T04:26:26.249Z,99382.88
2023-11-15T04:26:57.939Z,99387.34
2023-11-15T04:27:29.435Z,99388.06
2023-11-15T04:28:02.080Z,99398.69
2023-11-15T04:28:33.748Z,99399.53
2023-11-15T04:29:05.330Z,99396.31
2023-11-15T04:29:39.672Z,99409.63
2023-11-15T04:30:11.427Z,99411.28
2023-11-15T04:30:42.855Z,99402.31
2023-11-15T04:31:14.446Z,99405.94
2023-11-15T04:31:45.935Z,99405.94
2023-11-15T04:32:17.416Z,99404.00
2023-11-15T04:32:48.998Z,99402.31
2023-11-15T04:33:20.726Z,99391.69
2023-11-15T04:33:52.322Z,99389.16
2023-11-15T04:34:23.823Z,99395.31
2023-11-15T04:34:55.208Z,99410.44
2023-11-15T04:35:26.707Z,99405.94
2023-11-15T04:35:58.214Z,99412.00
2023-11-15T04:36:34.996Z,99412.00
2023-11-15T04:37:06.454Z,99399.81
2023-11-15T04:37:37.862Z,99412.97
2023-11-15T04:38:09.296Z,99413.78
2023-11-15T04:38:41.034Z,99419.97
2023-11-15T04:39:12.561Z,99411.66
2023-11-15T04:39:44.077Z,99417.00
2023-11-15T04:40:15.488Z,99418.00
2023-11-15T04:40:46.948Z,99418.00
2023-11-15T04:41:18.397Z,99431.28
2023-11-15T04:41:49.856Z,99422.44
2023-11-15T04:42:21.555Z,99422.44
2023-11-15T04:42:53.046Z,99422.63
2023-11-15T04:43:24.489Z,99427.94
2023-11-15T04:43:55.893Z,99422.63
2023-11-15T04:44:27.352Z,99418.97
2023-11-15T04:44:58.872Z,99421.63
2023-11-15T04:45:30.351Z,99425.09
2023-11-15T04:46:01.854Z,99427.63
2023-11-15T04:46:33.299Z,99422.63
2023-11-15T04:47:04.746Z,99426.81
2023-11-15T04:47:36.299Z,99423.31
2023-11-15T04:48:08.088Z,99426.81
2023-11-15T04:48:39.722Z,99426.94
2023-11-15T04:49:11.171Z,99426.94
2023-11-15T04:49:42.582Z,99426.13
2023-11-15T04:50:14.059Z,99422.44
2023-11-15T04:50:45.590Z,99425.28
2023-11-15T04:51:17.027Z,99420.78
2023-11-15T04:51:48.387Z,99421.75
2023-11-15T04:52:19.809Z,99422.63
2023-11-15T04:52:51.209Z,99425.09
2023-11-15T04:53:22.713Z,99421.63
2023-11-15T04:53:54.204Z,99419.78
2023-11-15T04:54:25.711Z,99433.09
2023-11-15T04:54:57.207Z,99423.31
2023-11-15T04:55:28.696Z,99417.13
2023-11-15T04:56:00.109Z,99418.97
2023-11-15T04:56:31.588Z,99422.63
2023-11-15T04:57:03.113Z,99423.59
2023-11-15T04:57:34.658Z,99421.63
2023-11-15T04:58:06.066Z,99420.66
2023-11-15T04:58:37.510Z,99428.63
2023-11-15T04:59:08.946Z,99433.94
2023-11-15T04:59:40.447Z,99432.94
2023-11-15T05:00:12.376Z,99431.28
2023-11-15T05:00:43.946Z,99427.78
2023-11-15T05:01:15.391Z,99432.25
2023-11-15T05:01:47.196Z,99426.94
2023-11-15T05:02:18.697Z,99432.25
2023-11-15T05:02:50.256Z,99433.25
2023-11-15T05:03:21.853Z,99429.59
2023-11-15T05:03:53.582Z,99431.28
2023-11-15T05:04:25.276Z,99435.47
2023-11-15T05:04:56.902Z,99435.31
2023-11-15T05:05:28.444Z,99434.50
2023-11-15T05:05:59.996Z,99436.19
2023-11-15T05:06:31.415Z,99441.78
2023-11-15T05:07:02.790Z,99434.78
2023-11-15T05:07:34.300Z,99439.13
2023-11-15T05:08:05.701Z,99444.44
2023-11-15T05:08:37.136Z,99438.25
2023-11-15T05:09:08.577Z,99442.63
2023-11-15T05:09:40.053Z,99439.97
2023-11-15T05:10:11.606Z,99443.31
2023-11-15T05:10:43.052Z,99438.13
2023-11-15T05:11:14.576Z,99443.59
2023-11-15T05:11:46.047Z,99441.94
2023-11-15T05:12:17.623Z,99444.59
2023-11-15T05:12:49.084Z,99441.78
2023-11-15T05:13:20.625Z,99445.28
2023-11-15T05:13:52.102Z,99444.44
2023-11-15T05:14:23.586Z,99443.59
2023-11-15T05:14:55.031Z,99444.59
2023-11-15T05:15:26.531Z,99447.94
2023-11-15T05:16:01.024Z,99442.75
2023-11-15T05:16:32.805Z,99440.94
2023-11-15T05:17:04.263Z,99444.44
2023-11-15T05:17:35.749Z,99445.28
2023-11-15T05:18:07.466Z,99436.47
2023-11-15T05:18:38.993Z,99444.31
2023-11-15T05:19:10.500Z,99437.28
2023-11-15T05:19:42.218Z,99437.28
2023-11-15T05:20:13.673Z,99442.63
2023-11-15T05:20:45.256Z,99440.94
2023-11-15T05:21:16.700Z,99446.25
2023-11-15T05:21:48.141Z,99438.41
2023-11-15T05:22:19.656Z,99448.34
2023-11-15T05:22:51.304Z,99443.91
2023-11-15T05:23:22.740Z,99442.91
2023-11-15T05:23:54.243Z,99443.19
2023-11-15T05:24:25.672Z,99452.84
2023-11-15T05:24:57.214Z,99443.91
2023-11-15T05:25:28.688Z,99446.56
2023-11-15T05:26:00.193Z,99449.91
2023-11-15T05:26:31.725Z,99448.75
2023-11-15T05:27:03.274Z,99442.91
2023-11-15T05:27:34.697Z,99448.91
2023-11-15T05:28:06.107Z,99451.56
2023-11-15T05:28:37.500Z,99449.06
2023-11-15T05:29:08.938Z,99452.44
2023-11-15T05:29:40.362Z,99448.91
2023-11-15T05:30:12.109Z,99447.94
2023-11-15T05:30:43.524Z,99452.44
2023-11-15T05:31:15.009Z,99455.22
2023-11-15T05:31:46.477Z,99456.34
2023-11-15T05:32:17.971Z,99453.53
2023-11-15T05:32:49.475Z,99458.84
2023-11-15T05:33:21.040Z,99451.88
2023-11-15T05:33:52.529Z,99458.16
2023-11-15T05:34:24.034Z,99454.38
2023-11-15T05:34:55.455Z,99455.09
2023-11-15T05:35:27.045Z,99456.19
2023-11-15T05:35:58.582Z,99451.72
2023-11-15T05:36:30.074Z,99458.84
2023-11-15T05:37:01.534Z,99460.53
2023-11-15T05:37:32.958Z,99456.06
2023-11-15T05:38:04.392Z,99453.53
2023-11-15T05:38:36.162Z,99465.00
2023-11-15T05:39:07.677Z,99456.19
2023-11-15T05:39:39.073Z,99462.53
2023-11-15T05:40:10.587Z,99460.69
2023-11-15T05:40:42.075Z,99463.06
2023-11-15T05:41:13.509Z,99468.53
2023-11-15T05:41:44.919Z,99463.22
2023-11-15T05:42:16.317Z,99474.53
2023-11-15T05:42:47.774Z,99470.91
2023-11-15T05:43:19.261Z,99463.91
2023-11-15T05:43:50.686Z,99460.25
2023-11-15T05:44:22.141Z,99466.41
2023-11-15T05:44:53.597Z,99469.06
2023-11-15T05:45:25.052Z,99460.25
2023-11-15T05:45:56.511Z,99465.59
2023-11-15T05:46:28.057Z,99468.25
2023-11-15T05:47:00.223Z,99479.84
2023-11-15T05:47:31.838Z,99474.69
2023-11-15T05:48:03.424Z,99474.00
2023-11-15T05:48:34.990Z,99480.81
2023-11-15T05:49:06.507Z,99479.03
2023-11-15T05:49:37.946Z,99470.19
2023-11-15T05:50:09.549Z,99478.03
2023-11-15T05:50:41.037Z,99476.38
2023-11-15T05:51:12.523Z,99475.50
2023-11-15T05:51:43.964Z,99477.34
2023-11-15T05:52:15.528Z,99483.34
2023-11-15T05:52:47.019Z,99480.81
2023-11-15T05:53:18.461Z,99473.69
2023-11-15T05:53:50.029Z,99479.16
2023-11-15T05:54:21.562Z,99474.53
2023-11-15T05:54:53.028Z,99478.16
2023-11-15T05:55:24.517Z,99478.88
2023-11-15T05:55:56.049Z,99468.25
2023-11-15T05:56:27.560Z,99477.88
2023-11-15T05:56:59.106Z,99481.53
2023-11-15T05:57:30.510Z,99483.19
2023-11-15T05:58:02.075Z,99480.53
2023-11-15T05:58:33.472Z,99484.19
2023-11-15T05:59:04.923Z,99488.66
2023-11-15T05:59:36.356Z,99487.84
2023-11-15T06:00:08.130Z,99479.16
2023-11-15T06:00:39.657Z,99483.47
2023-11-15T06:01:11.116Z,99485.16
2023-11-15T06:01:42.675Z,99479.03
2023-11-15T06:02:14.125Z,99478.16
2023-11-15T06:02:48.509Z,99486.16
2023-11-15T06:03:20.293Z,99478.03
2023-11-15T06:03:51.886Z,99480.69
2023-11-15T06:04:23.461Z,99486.16
2023-11-15T06:04:55.783Z,99477.34
2023-11-15T06:05:27.249Z,99485.16
2023-11-15T06:05:58.802Z,99486.00
2023-11-15T06:06:30.320Z,99489.66
2023-11-15T06:07:01.747Z,99481.53
2023-11-15T06:07:33.324Z,99486.16
2023-11-15T06:08:05.380Z,99480.00
2023-11-15T06:08:37.045Z,99485.31
2023-11-15T06:09:08.804Z,99481.53
2023-11-15T06:09:40.228Z,99484.47
2023-11-15T06:10:11.734Z,99475.50
2023-11-15T06:10:43.261Z,99476.50
2023-11-15T06:11:14.789Z,99484.34